Accueil
METAR-TAF:

METAR-TAF

Aéroports :

Le Helder, Pays-Bas

latitude: 52-55N, longitude: 004-47E, altitude: 0 m

Observation

Le bulletin a été fait il y a 23 minutes, à 11:11 UTC
Vent 15 kt de est/sud-est, variant entre est et sud-est
Température 4°C
Humidité 87%
Pression 1018 hPa
Visibilité: 8000 m
Ciel couvert à une hauteur de 1000 ft
Nuages épars à une hauteur de 1200 ft
Nuages fragmentés à une hauteur de 8000 ft
brume

METAR: EHKD 211111Z AUTO 11012KT 080V140 8000 BR OVC010 04/02 Q1018 GRN 11015KT 8000 SCT012 BKN080

Heure: 12:34 (11:34 UTC)

Prévision

Le bulletin a été fait il y a 2 heures et 3 minutes, à 09:31 UTC
Prévision valable du 21 à 10 UTC au 21 à 22 UTC
Vent 12 kt de est/sud-est
Visibilité: 9000 m
Nuages épars à une hauteur de 1200 ft
Nuages fragmentés à une hauteur de 10000 ft

TAF: EHKD 210931Z 2110/2122 11012KT 9000 SCT012 BKN100

Observations et prévisions météorologiques de plus de 4000 aéroports (messages METAR et TAF).

Les stations disponibles sont représentées par des disques jaunes et rouges sur la carte.

Passer la souris dessus pour voir le nom de la station.

Cliquer dessus pour voir les observations et prévisions météorologiques.

Pour changer de carte: cliquez sur les boutons verts avec une croix noire pour zoomer, sur le bouton vert avec un tiret pour effectuer un zoom arrière, ou sur les flèches vertes pour les cartes adjacentes.


METAR-TAF: